Thiensville, Wisconsin
Current Conditions -  °F | °C
As of 8:15 PM on Monday 22 Dec 2014 (Local Time) from KMWC Reporting Station
Moderate Rain Moderate Rain  
Wind Chill: 30°   Ceiling: 500
Heat Index: 37°   Visibility: 3mi
Dew Point: 36°   Wind: 12mph
Humidity: 93%   Direction: 120°ESE
Pressure: 29.69"   Gusts: 16mph
Location:  43.24°N, 87.98°W
Report Text: KMWC 230215Z AUTO 12010G14KT 3SM RA OVC005 03/02 A2969 RMK AO2 P0001
Loading
Personal Weather Stations






























Interactive Weather Map New forecast layout! Learn more

10-Day Weather Forecast

Advertisements
Track Severe Weather on mobile